sensor_id;sensor_type;location;lat;lon;timestamp;P1;durP1;ratioP1;P2;durP2;ratioP2
43990;SDS011;29654;50.784;20.604;2022-07-29T00:00:21;1.20;;;1.00;;
43990;SDS011;29654;50.784;20.604;2022-07-29T00:05:24;1.80;;;1.42;;
43990;SDS011;29654;50.784;20.604;2022-07-29T00:10:29;2.35;;;1.55;;
43990;SDS011;29654;50.784;20.604;2022-07-29T00:15:32;2.20;;;1.75;;
43990;SDS011;29654;50.784;20.604;2022-07-29T00:20:35;3.25;;;1.60;;
43990;SDS011;29654;50.784;20.604;2022-07-29T00:25:39;3.00;;;1.58;;
43990;SDS011;29654;50.784;20.604;2022-07-29T00:30:42;2.88;;;1.60;;
43990;SDS011;29654;50.784;20.604;2022-07-29T00:35:46;1.95;;;1.70;;
43990;SDS011;29654;50.784;20.604;2022-07-29T00:40:50;2.08;;;1.40;;
43990;SDS011;29654;50.784;20.604;2022-07-29T00:45:53;1.80;;;1.50;;
43990;SDS011;29654;50.784;20.604;2022-07-29T00:50:56;1.67;;;1.38;;
43990;SDS011;29654;50.784;20.604;2022-07-29T00:56:03;2.45;;;1.50;;
43990;SDS011;29654;50.784;20.604;2022-07-29T01:01:06;1.60;;;1.50;;
43990;SDS011;29654;50.784;20.604;2022-07-29T01:06:09;1.88;;;1.20;;
43990;SDS011;29654;50.784;20.604;2022-07-29T01:11:13;3.22;;;1.48;;
43990;SDS011;29654;50.784;20.604;2022-07-29T01:16:18;2.55;;;1.70;;
43990;SDS011;29654;50.784;20.604;2022-07-29T01:21:40;1.40;;;1.25;;
43990;SDS011;29654;50.784;20.604;2022-07-29T01:26:57;1.17;;;1.08;;
43990;SDS011;29654;50.784;20.604;2022-07-29T01:32:11;1.40;;;1.30;;
43990;SDS011;29654;50.784;20.604;2022-07-29T01:37:19;1.27;;;0.95;;
43990;SDS011;29654;50.784;20.604;2022-07-29T01:42:27;1.40;;;1.30;;
43990;SDS011;29654;50.784;20.604;2022-07-29T01:47:39;2.13;;;1.30;;
43990;SDS011;29654;50.784;20.604;2022-07-29T01:52:48;1.67;;;1.20;;
43990;SDS011;29654;50.784;20.604;2022-07-29T01:57:58;2.03;;;1.25;;
43990;SDS011;29654;50.784;20.604;2022-07-29T02:03:05;2.28;;;1.27;;
43990;SDS011;29654;50.784;20.604;2022-07-29T02:08:12;3.13;;;1.40;;
43990;SDS011;29654;50.784;20.604;2022-07-29T02:13:17;1.95;;;1.13;;
43990;SDS011;29654;50.784;20.604;2022-07-29T02:18:24;1.23;;;1.10;;
43990;SDS011;29654;50.784;20.604;2022-07-29T02:23:32;1.40;;;1.27;;
43990;SDS011;29654;50.784;20.604;2022-07-29T02:28:38;1.52;;;1.10;;
43990;SDS011;29654;50.784;20.604;2022-07-29T02:33:43;1.13;;;1.02;;
43990;SDS011;29654;50.784;20.604;2022-07-29T02:38:47;2.60;;;1.40;;
43990;SDS011;29654;50.784;20.604;2022-07-29T02:43:53;1.80;;;1.35;;
43990;SDS011;29654;50.784;20.604;2022-07-29T02:49:02;2.13;;;1.20;;
43990;SDS011;29654;50.784;20.604;2022-07-29T02:54:14;1.45;;;1.00;;
43990;SDS011;29654;50.784;20.604;2022-07-29T02:59:26;2.40;;;1.40;;
43990;SDS011;29654;50.784;20.604;2022-07-29T03:04:33;1.73;;;1.27;;
43990;SDS011;29654;50.784;20.604;2022-07-29T03:09:37;2.65;;;1.30;;
43990;SDS011;29654;50.784;20.604;2022-07-29T03:14:43;1.73;;;1.20;;
43990;SDS011;29654;50.784;20.604;2022-07-29T03:19:48;2.55;;;1.48;;
43990;SDS011;29654;50.784;20.604;2022-07-29T03:24:51;1.77;;;1.40;;
43990;SDS011;29654;50.784;20.604;2022-07-29T03:29:54;3.95;;;1.20;;
43990;SDS011;29654;50.784;20.604;2022-07-29T03:34:58;3.70;;;1.48;;
43990;SDS011;29654;50.784;20.604;2022-07-29T03:40:02;2.67;;;1.17;;
43990;SDS011;29654;50.784;20.604;2022-07-29T03:45:09;1.20;;;1.10;;
43990;SDS011;29654;50.784;20.604;2022-07-29T03:50:18;1.52;;;1.42;;
43990;SDS011;29654;50.784;20.604;2022-07-29T03:55:23;3.90;;;1.90;;
43990;SDS011;29654;50.784;20.604;2022-07-29T04:00:27;2.08;;;1.35;;
43990;SDS011;29654;50.784;20.604;2022-07-29T04:05:32;1.58;;;1.00;;
43990;SDS011;29654;50.784;20.604;2022-07-29T04:10:35;1.85;;;1.15;;
43990;SDS011;29654;50.784;20.604;2022-07-29T04:15:40;1.35;;;1.25;;
43990;SDS011;29654;50.784;20.604;2022-07-29T04:20:44;0.98;;;0.93;;
43990;SDS011;29654;50.784;20.604;2022-07-29T04:25:47;1.33;;;1.00;;
43990;SDS011;29654;50.784;20.604;2022-07-29T04:30:52;0.98;;;0.98;;
43990;SDS011;29654;50.784;20.604;2022-07-29T04:35:56;1.25;;;1.10;;
43990;SDS011;29654;50.784;20.604;2022-07-29T04:40:59;2.30;;;1.05;;
43990;SDS011;29654;50.784;20.604;2022-07-29T04:46:01;1.23;;;1.10;;
43990;SDS011;29654;50.784;20.604;2022-07-29T04:51:06;1.20;;;1.08;;
43990;SDS011;29654;50.784;20.604;2022-07-29T04:56:10;2.47;;;1.17;;
43990;SDS011;29654;50.784;20.604;2022-07-29T05:01:12;1.42;;;1.00;;
43990;SDS011;29654;50.784;20.604;2022-07-29T05:06:17;0.98;;;0.88;;
43990;SDS011;29654;50.784;20.604;2022-07-29T05:11:20;1.10;;;1.10;;
43990;SDS011;29654;50.784;20.604;2022-07-29T05:16:23;2.33;;;1.17;;
43990;SDS011;29654;50.784;20.604;2022-07-29T05:21:27;1.63;;;1.40;;
43990;SDS011;29654;50.784;20.604;2022-07-29T05:26:30;1.35;;;1.08;;
43990;SDS011;29654;50.784;20.604;2022-07-29T05:31:33;2.83;;;1.58;;
43990;SDS011;29654;50.784;20.604;2022-07-29T05:36:37;4.18;;;1.10;;
43990;SDS011;29654;50.784;20.604;2022-07-29T05:41:40;0.88;;;0.88;;
43990;SDS011;29654;50.784;20.604;2022-07-29T05:46:43;1.95;;;1.13;;
43990;SDS011;29654;50.784;20.604;2022-07-29T05:51:47;3.28;;;1.42;;
43990;SDS011;29654;50.784;20.604;2022-07-29T05:56:51;2.42;;;1.00;;
43990;SDS011;29654;50.784;20.604;2022-07-29T06:01:53;1.05;;;0.80;;
43990;SDS011;29654;50.784;20.604;2022-07-29T06:06:58;1.67;;;1.00;;
43990;SDS011;29654;50.784;20.604;2022-07-29T06:12:02;1.85;;;1.25;;
43990;SDS011;29654;50.784;20.604;2022-07-29T06:17:06;3.30;;;1.00;;
43990;SDS011;29654;50.784;20.604;2022-07-29T06:22:10;1.98;;;1.00;;
43990;SDS011;29654;50.784;20.604;2022-07-29T06:27:13;1.05;;;0.95;;
43990;SDS011;29654;50.784;20.604;2022-07-29T06:32:16;2.08;;;1.08;;
43990;SDS011;29654;50.784;20.604;2022-07-29T06:37:20;1.38;;;1.00;;
43990;SDS011;29654;50.784;20.604;2022-07-29T06:42:23;1.65;;;1.00;;
43990;SDS011;29654;50.784;20.604;2022-07-29T06:47:26;1.95;;;0.93;;
43990;SDS011;29654;50.784;20.604;2022-07-29T06:52:30;2.13;;;1.10;;
43990;SDS011;29654;50.784;20.604;2022-07-29T06:57:33;1.60;;;1.10;;
43990;SDS011;29654;50.784;20.604;2022-07-29T07:02:36;1.73;;;1.50;;
43990;SDS011;29654;50.784;20.604;2022-07-29T07:07:41;1.33;;;1.00;;
43990;SDS011;29654;50.784;20.604;2022-07-29T07:12:43;1.02;;;0.90;;
43990;SDS011;29654;50.784;20.604;2022-07-29T07:17:47;2.17;;;0.98;;
43990;SDS011;29654;50.784;20.604;2022-07-29T07:22:51;1.10;;;1.05;;
43990;SDS011;29654;50.784;20.604;2022-07-29T07:27:54;0.95;;;0.90;;
43990;SDS011;29654;50.784;20.604;2022-07-29T07:32:57;2.45;;;1.17;;
43990;SDS011;29654;50.784;20.604;2022-07-29T07:38:03;1.23;;;1.08;;
43990;SDS011;29654;50.784;20.604;2022-07-29T07:43:06;2.55;;;1.10;;
43990;SDS011;29654;50.784;20.604;2022-07-29T07:48:09;4.30;;;1.58;;
43990;SDS011;29654;50.784;20.604;2022-07-29T07:53:13;1.80;;;1.05;;
43990;SDS011;29654;50.784;20.604;2022-07-29T07:58:16;1.17;;;1.08;;
43990;SDS011;29654;50.784;20.604;2022-07-29T08:03:19;2.80;;;1.20;;
43990;SDS011;29654;50.784;20.604;2022-07-29T08:08:23;1.40;;;1.30;;
43990;SDS011;29654;50.784;20.604;2022-07-29T08:13:26;2.20;;;0.90;;
43990;SDS011;29654;50.784;20.604;2022-07-29T08:18:30;1.25;;;0.90;;
43990;SDS011;29654;50.784;20.604;2022-07-29T08:23:35;1.60;;;1.00;;
43990;SDS011;29654;50.784;20.604;2022-07-29T08:28:40;1.50;;;0.93;;
43990;SDS011;29654;50.784;20.604;2022-07-29T08:33:46;1.67;;;1.00;;
43990;SDS011;29654;50.784;20.604;2022-07-29T08:38:50;2.42;;;1.13;;
43990;SDS011;29654;50.784;20.604;2022-07-29T08:43:53;1.63;;;1.13;;
43990;SDS011;29654;50.784;20.604;2022-07-29T08:48:56;1.80;;;1.08;;
43990;SDS011;29654;50.784;20.604;2022-07-29T08:54:00;1.60;;;1.10;;
43990;SDS011;29654;50.784;20.604;2022-07-29T08:59:04;1.30;;;1.20;;
43990;SDS011;29654;50.784;20.604;2022-07-29T09:04:10;0.98;;;0.90;;
43990;SDS011;29654;50.784;20.604;2022-07-29T09:09:15;1.95;;;1.23;;
43990;SDS011;29654;50.784;20.604;2022-07-29T09:14:18;1.92;;;1.30;;
43990;SDS011;29654;50.784;20.604;2022-07-29T09:19:23;1.73;;;1.30;;
43990;SDS011;29654;50.784;20.604;2022-07-29T09:24:40;1.35;;;0.90;;
43990;SDS011;29654;50.784;20.604;2022-07-29T09:29:48;1.50;;;1.27;;
43990;SDS011;29654;50.784;20.604;2022-07-29T09:35:18;2.15;;;1.23;;
43990;SDS011;29654;50.784;20.604;2022-07-29T09:40:25;1.38;;;1.27;;
43990;SDS011;29654;50.784;20.604;2022-07-29T09:45:30;1.30;;;1.10;;
43990;SDS011;29654;50.784;20.604;2022-07-29T09:50:35;3.08;;;1.40;;
43990;SDS011;29654;50.784;20.604;2022-07-29T09:55:49;2.15;;;1.50;;
43990;SDS011;29654;50.784;20.604;2022-07-29T10:00:54;1.48;;;1.38;;
43990;SDS011;29654;50.784;20.604;2022-07-29T10:06:04;1.58;;;1.45;;
43990;SDS011;29654;50.784;20.604;2022-07-29T10:11:11;1.98;;;1.30;;
43990;SDS011;29654;50.784;20.604;2022-07-29T10:16:16;2.83;;;1.65;;
43990;SDS011;29654;50.784;20.604;2022-07-29T10:21:19;1.70;;;1.55;;
43990;SDS011;29654;50.784;20.604;2022-07-29T10:26:25;2.70;;;1.65;;
43990;SDS011;29654;50.784;20.604;2022-07-29T10:31:29;2.20;;;1.38;;
43990;SDS011;29654;50.784;20.604;2022-07-29T10:36:50;2.03;;;1.67;;
43990;SDS011;29654;50.784;20.604;2022-07-29T10:42:13;4.00;;;1.70;;
43990;SDS011;29654;50.784;20.604;2022-07-29T10:47:21;2.42;;;1.80;;
43990;SDS011;29654;50.784;20.604;2022-07-29T10:52:37;2.42;;;1.65;;
43990;SDS011;29654;50.784;20.604;2022-07-29T10:58:11;1.70;;;1.50;;
43990;SDS011;29654;50.784;20.604;2022-07-29T11:14:22;1.58;;;1.48;;
43990;SDS011;29654;50.784;20.604;2022-07-29T11:25:42;3.50;;;1.58;;
43990;SDS011;29654;50.784;20.604;2022-07-29T11:30:50;2.25;;;1.85;;
43990;SDS011;29654;50.784;20.604;2022-07-29T11:41:23;2.75;;;2.22;;
43990;SDS011;29654;50.784;20.604;2022-07-29T11:46:47;1.88;;;1.77;;
43990;SDS011;29654;50.784;20.604;2022-07-29T11:51:52;4.18;;;1.70;;
43990;SDS011;29654;50.784;20.604;2022-07-29T11:56:56;3.40;;;1.95;;
43990;SDS011;29654;50.784;20.604;2022-07-29T12:02:02;3.10;;;1.92;;
43990;SDS011;29654;50.784;20.604;2022-07-29T12:07:05;2.63;;;1.98;;
43990;SDS011;29654;50.784;20.604;2022-07-29T12:12:08;2.13;;;1.75;;
43990;SDS011;29654;50.784;20.604;2022-07-29T12:17:26;4.93;;;1.83;;
43990;SDS011;29654;50.784;20.604;2022-07-29T12:22:31;3.35;;;2.50;;
43990;SDS011;29654;50.784;20.604;2022-07-29T12:27:38;3.08;;;1.85;;
43990;SDS011;29654;50.784;20.604;2022-07-29T12:32:45;2.83;;;2.08;;
43990;SDS011;29654;50.784;20.604;2022-07-29T12:37:49;3.28;;;2.00;;
43990;SDS011;29654;50.784;20.604;2022-07-29T12:48:13;2.20;;;2.00;;
43990;SDS011;29654;50.784;20.604;2022-07-29T12:53:17;2.95;;;1.55;;
43990;SDS011;29654;50.784;20.604;2022-07-29T12:58:32;1.98;;;1.83;;
43990;SDS011;29654;50.784;20.604;2022-07-29T13:03:45;2.47;;;1.70;;
43990;SDS011;29654;50.784;20.604;2022-07-29T13:08:58;2.67;;;2.00;;
43990;SDS011;29654;50.784;20.604;2022-07-29T13:14:08;3.25;;;1.80;;
43990;SDS011;29654;50.784;20.604;2022-07-29T13:19:14;3.03;;;2.00;;
43990;SDS011;29654;50.784;20.604;2022-07-29T13:24:17;2.65;;;1.98;;
43990;SDS011;29654;50.784;20.604;2022-07-29T13:29:21;2.00;;;1.90;;
43990;SDS011;29654;50.784;20.604;2022-07-29T13:34:25;2.25;;;1.88;;
43990;SDS011;29654;50.784;20.604;2022-07-29T13:39:28;1.92;;;1.80;;
43990;SDS011;29654;50.784;20.604;2022-07-29T13:44:31;1.95;;;1.80;;
43990;SDS011;29654;50.784;20.604;2022-07-29T13:49:36;2.30;;;2.10;;
43990;SDS011;29654;50.784;20.604;2022-07-29T13:54:39;3.03;;;2.10;;
43990;SDS011;29654;50.784;20.604;2022-07-29T13:59:42;2.72;;;2.10;;
43990;SDS011;29654;50.784;20.604;2022-07-29T14:04:47;2.28;;;1.95;;
43990;SDS011;29654;50.784;20.604;2022-07-29T14:09:49;2.65;;;1.95;;
43990;SDS011;29654;50.784;20.604;2022-07-29T14:14:52;2.30;;;2.10;;
43990;SDS011;29654;50.784;20.604;2022-07-29T14:19:58;2.65;;;1.83;;
43990;SDS011;29654;50.784;20.604;2022-07-29T14:25:01;3.25;;;1.98;;
43990;SDS011;29654;50.784;20.604;2022-07-29T14:30:05;2.05;;;1.90;;
43990;SDS011;29654;50.784;20.604;2022-07-29T14:35:11;2.58;;;2.05;;
43990;SDS011;29654;50.784;20.604;2022-07-29T14:40:15;2.33;;;2.13;;
43990;SDS011;29654;50.784;20.604;2022-07-29T14:45:19;1.85;;;1.70;;
43990;SDS011;29654;50.784;20.604;2022-07-29T14:50:24;2.65;;;1.88;;
43990;SDS011;29654;50.784;20.604;2022-07-29T14:55:27;2.83;;;2.00;;
43990;SDS011;29654;50.784;20.604;2022-07-29T15:00:30;2.70;;;2.15;;
43990;SDS011;29654;50.784;20.604;2022-07-29T15:05:35;3.25;;;2.10;;
43990;SDS011;29654;50.784;20.604;2022-07-29T15:10:38;5.80;;;2.05;;
43990;SDS011;29654;50.784;20.604;2022-07-29T15:15:41;1.90;;;1.70;;
43990;SDS011;29654;50.784;20.604;2022-07-29T15:20:46;2.05;;;1.95;;
43990;SDS011;29654;50.784;20.604;2022-07-29T15:25:49;2.95;;;1.73;;
43990;SDS011;29654;50.784;20.604;2022-07-29T15:30:51;1.85;;;1.75;;
43990;SDS011;29654;50.784;20.604;2022-07-29T15:35:56;3.78;;;1.85;;
43990;SDS011;29654;50.784;20.604;2022-07-29T15:40:59;3.20;;;1.73;;
43990;SDS011;29654;50.784;20.604;2022-07-29T15:46:02;2.25;;;1.60;;
43990;SDS011;29654;50.784;20.604;2022-07-29T15:51:24;1.85;;;1.55;;
43990;SDS011;29654;50.784;20.604;2022-07-29T15:56:27;1.85;;;1.73;;
43990;SDS011;29654;50.784;20.604;2022-07-29T16:01:30;3.53;;;1.70;;
43990;SDS011;29654;50.784;20.604;2022-07-29T16:06:35;7.22;;;2.47;;
43990;SDS011;29654;50.784;20.604;2022-07-29T16:11:38;3.22;;;1.92;;
43990;SDS011;29654;50.784;20.604;2022-07-29T16:16:41;3.53;;;2.00;;
43990;SDS011;29654;50.784;20.604;2022-07-29T16:21:45;2.10;;;1.75;;
43990;SDS011;29654;50.784;20.604;2022-07-29T16:26:49;1.85;;;1.73;;
43990;SDS011;29654;50.784;20.604;2022-07-29T16:31:52;3.88;;;1.90;;
43990;SDS011;29654;50.784;20.604;2022-07-29T16:36:57;2.50;;;2.30;;
43990;SDS011;29654;50.784;20.604;2022-07-29T16:41:59;5.40;;;2.78;;
43990;SDS011;29654;50.784;20.604;2022-07-29T16:47:02;3.20;;;2.42;;
43990;SDS011;29654;50.784;20.604;2022-07-29T16:52:07;3.53;;;2.53;;
43990;SDS011;29654;50.784;20.604;2022-07-29T16:57:10;5.03;;;3.45;;
43990;SDS011;29654;50.784;20.604;2022-07-29T17:02:13;2.13;;;2.03;;
43990;SDS011;29654;50.784;20.604;2022-07-29T17:07:17;2.63;;;2.42;;
43990;SDS011;29654;50.784;20.604;2022-07-29T17:12:20;3.50;;;1.63;;
43990;SDS011;29654;50.784;20.604;2022-07-29T17:17:23;2.25;;;1.98;;
43990;SDS011;29654;50.784;20.604;2022-07-29T17:22:27;3.50;;;1.90;;
43990;SDS011;29654;50.784;20.604;2022-07-29T17:27:30;2.83;;;1.75;;
43990;SDS011;29654;50.784;20.604;2022-07-29T17:32:34;1.83;;;1.70;;
43990;SDS011;29654;50.784;20.604;2022-07-29T17:37:39;3.35;;;1.90;;
43990;SDS011;29654;50.784;20.604;2022-07-29T17:42:42;5.60;;;2.97;;
43990;SDS011;29654;50.784;20.604;2022-07-29T17:47:45;2.45;;;2.25;;
43990;SDS011;29654;50.784;20.604;2022-07-29T17:52:50;2.20;;;2.00;;
43990;SDS011;29654;50.784;20.604;2022-07-29T17:57:52;2.17;;;2.00;;
43990;SDS011;29654;50.784;20.604;2022-07-29T18:02:55;3.38;;;2.30;;
43990;SDS011;29654;50.784;20.604;2022-07-29T18:08:00;2.70;;;2.05;;
43990;SDS011;29654;50.784;20.604;2022-07-29T18:13:03;5.18;;;2.28;;
43990;SDS011;29654;50.784;20.604;2022-07-29T18:18:06;6.90;;;2.53;;
43990;SDS011;29654;50.784;20.604;2022-07-29T18:23:10;2.35;;;2.05;;
43990;SDS011;29654;50.784;20.604;2022-07-29T18:28:14;2.58;;;2.33;;
43990;SDS011;29654;50.784;20.604;2022-07-29T18:33:17;2.40;;;2.20;;
43990;SDS011;29654;50.784;20.604;2022-07-29T18:38:21;5.90;;;2.72;;
43990;SDS011;29654;50.784;20.604;2022-07-29T18:43:24;4.75;;;2.80;;
43990;SDS011;29654;50.784;20.604;2022-07-29T18:48:27;2.60;;;2.40;;
43990;SDS011;29654;50.784;20.604;2022-07-29T18:53:31;3.75;;;2.47;;
43990;SDS011;29654;50.784;20.604;2022-07-29T18:58:34;2.88;;;2.67;;
43990;SDS011;29654;50.784;20.604;2022-07-29T19:03:38;3.40;;;2.33;;
43990;SDS011;29654;50.784;20.604;2022-07-29T19:08:42;2.42;;;2.17;;
43990;SDS011;29654;50.784;20.604;2022-07-29T19:13:45;2.20;;;2.00;;
43990;SDS011;29654;50.784;20.604;2022-07-29T19:18:48;2.50;;;1.88;;
43990;SDS011;29654;50.784;20.604;2022-07-29T19:23:52;1.98;;;1.77;;
43990;SDS011;29654;50.784;20.604;2022-07-29T19:28:56;3.40;;;1.80;;
43990;SDS011;29654;50.784;20.604;2022-07-29T19:33:59;3.75;;;2.10;;
43990;SDS011;29654;50.784;20.604;2022-07-29T19:39:03;2.60;;;1.90;;
43990;SDS011;29654;50.784;20.604;2022-07-29T19:44:06;2.67;;;1.63;;
43990;SDS011;29654;50.784;20.604;2022-07-29T19:49:10;3.15;;;1.90;;
43990;SDS011;29654;50.784;20.604;2022-07-29T19:54:15;1.30;;;1.20;;
43990;SDS011;29654;50.784;20.604;2022-07-29T19:59:18;2.33;;;1.45;;
43990;SDS011;29654;50.784;20.604;2022-07-29T20:04:21;1.48;;;1.38;;
43990;SDS011;29654;50.784;20.604;2022-07-29T20:09:26;2.53;;;1.45;;
43990;SDS011;29654;50.784;20.604;2022-07-29T20:14:28;1.27;;;1.17;;
43990;SDS011;29654;50.784;20.604;2022-07-29T20:19:31;1.58;;;1.27;;
43990;SDS011;29654;50.784;20.604;2022-07-29T20:24:36;1.48;;;1.13;;
43990;SDS011;29654;50.784;20.604;2022-07-29T20:29:39;3.03;;;1.50;;
43990;SDS011;29654;50.784;20.604;2022-07-29T20:34:42;2.97;;;1.38;;
43990;SDS011;29654;50.784;20.604;2022-07-29T20:39:46;2.20;;;1.42;;
43990;SDS011;29654;50.784;20.604;2022-07-29T20:44:49;1.73;;;1.40;;
43990;SDS011;29654;50.784;20.604;2022-07-29T20:49:53;4.05;;;1.55;;
43990;SDS011;29654;50.784;20.604;2022-07-29T20:54:57;2.20;;;1.30;;
43990;SDS011;29654;50.784;20.604;2022-07-29T21:00:01;1.52;;;1.20;;
43990;SDS011;29654;50.784;20.604;2022-07-29T21:05:05;3.22;;;1.45;;
43990;SDS011;29654;50.784;20.604;2022-07-29T21:10:10;1.73;;;1.20;;
43990;SDS011;29654;50.784;20.604;2022-07-29T21:15:13;1.30;;;1.20;;
43990;SDS011;29654;50.784;20.604;2022-07-29T21:20:19;3.80;;;1.52;;
43990;SDS011;29654;50.784;20.604;2022-07-29T21:25:24;2.78;;;1.23;;
43990;SDS011;29654;50.784;20.604;2022-07-29T21:30:27;1.73;;;1.38;;
43990;SDS011;29654;50.784;20.604;2022-07-29T21:35:30;2.22;;;1.45;;
43990;SDS011;29654;50.784;20.604;2022-07-29T21:40:35;2.88;;;1.70;;
43990;SDS011;29654;50.784;20.604;2022-07-29T21:45:38;2.10;;;1.23;;
43990;SDS011;29654;50.784;20.604;2022-07-29T21:50:41;2.75;;;1.40;;
43990;SDS011;29654;50.784;20.604;2022-07-29T21:55:46;2.35;;;1.50;;
43990;SDS011;29654;50.784;20.604;2022-07-29T22:00:51;1.25;;;1.15;;
43990;SDS011;29654;50.784;20.604;2022-07-29T22:05:54;2.03;;;1.40;;
43990;SDS011;29654;50.784;20.604;2022-07-29T22:10:59;5.13;;;1.42;;
43990;SDS011;29654;50.784;20.604;2022-07-29T22:16:02;2.47;;;1.33;;
43990;SDS011;29654;50.784;20.604;2022-07-29T22:21:05;1.92;;;1.65;;
43990;SDS011;29654;50.784;20.604;2022-07-29T22:26:10;2.42;;;1.55;;
43990;SDS011;29654;50.784;20.604;2022-07-29T22:31:13;3.00;;;1.45;;
43990;SDS011;29654;50.784;20.604;2022-07-29T22:36:16;2.88;;;1.60;;
43990;SDS011;29654;50.784;20.604;2022-07-29T22:41:21;2.42;;;1.40;;
43990;SDS011;29654;50.784;20.604;2022-07-29T22:46:24;1.73;;;1.60;;
43990;SDS011;29654;50.784;20.604;2022-07-29T22:51:27;1.70;;;1.60;;
43990;SDS011;29654;50.784;20.604;2022-07-29T22:56:31;5.40;;;1.77;;
43990;SDS011;29654;50.784;20.604;2022-07-29T23:01:34;3.75;;;1.63;;
43990;SDS011;29654;50.784;20.604;2022-07-29T23:06:37;1.60;;;1.48;;
43990;SDS011;29654;50.784;20.604;2022-07-29T23:11:42;2.25;;;1.67;;
43990;SDS011;29654;50.784;20.604;2022-07-29T23:16:46;2.58;;;1.67;;
43990;SDS011;29654;50.784;20.604;2022-07-29T23:21:49;2.85;;;1.67;;
43990;SDS011;29654;50.784;20.604;2022-07-29T23:26:53;2.08;;;1.83;;
43990;SDS011;29654;50.784;20.604;2022-07-29T23:31:56;3.58;;;1.88;;
43990;SDS011;29654;50.784;20.604;2022-07-29T23:36:59;2.17;;;1.65;;
43990;SDS011;29654;50.784;20.604;2022-07-29T23:42:03;1.88;;;1.70;;
43990;SDS011;29654;50.784;20.604;2022-07-29T23:47:06;3.50;;;2.05;;
43990;SDS011;29654;50.784;20.604;2022-07-29T23:52:09;2.22;;;1.92;;
43990;SDS011;29654;50.784;20.604;2022-07-29T23:57:13;1.85;;;1.75;;
